METAR Data

Data at: 0207 UTC 16 Jan 2019

METAR for:KLGA (New York/La Guardia, NY, US)
Text:KLGA 160151Z 10005KT 10SM FEW250 00/M09 A3013 RMK AO2 SLP202 T00001089
Temperature: 0.0°C ( 32°F)
Dewpoint: -8.9°C ( 16°F) [RH = 51%]
Pressure (altimeter):30.13 inches Hg (1020.4 mb) [Sea level pressure: 1020.2 mb]
Winds:from the E (100 degrees) at 6 MPH (5 knots; 2.6 m/s)
Visibility:10 or more sm (16+ km)
Ceiling:at least 12,000 feet AGL
Clouds: few clouds at 25000 feet AGL